sensor_id;sensor_type;location;lat;lon;timestamp;pressure;altitude;pressure_sealevel;temperature;humidity
63500;BME280;49654;51.142;14.924;2023-04-06T00:00:13;99665.22;;;-0.28;70.55
63500;BME280;49654;51.142;14.924;2023-04-06T00:02:41;99671.22;;;-0.43;71.79
63500;BME280;49654;51.142;14.924;2023-04-06T00:05:08;99687.28;;;-0.41;72.76
63500;BME280;49654;51.142;14.924;2023-04-06T00:07:35;99646.13;;;-0.63;72.41
63500;BME280;49654;51.142;14.924;2023-04-06T00:10:03;99686.28;;;-0.38;73.03
63500;BME280;49654;51.142;14.924;2023-04-06T00:12:32;99676.34;;;-0.29;71.77
63500;BME280;49654;51.142;14.924;2023-04-06T00:14:58;99684.34;;;-0.20;71.52
63500;BME280;49654;51.142;14.924;2023-04-06T00:17:27;99667.94;;;-0.31;71.39
63500;BME280;49654;51.142;14.924;2023-04-06T00:19:54;99658.13;;;-0.37;71.36
63500;BME280;49654;51.142;14.924;2023-04-06T00:22:21;99648.66;;;-0.49;70.92
63500;BME280;49654;51.142;14.924;2023-04-06T00:24:48;99643.91;;;-0.55;70.66
63500;BME280;49654;51.142;14.924;2023-04-06T00:27:15;99652.75;;;-0.61;71.10
63500;BME280;49654;51.142;14.924;2023-04-06T00:29:43;99584.00;;;-1.05;71.71
63500;BME280;49654;51.142;14.924;2023-04-06T00:32:10;99683.00;;;-0.40;71.39
63500;BME280;49654;51.142;14.924;2023-04-06T00:34:37;99678.81;;;-0.41;70.87
63500;BME280;49654;51.142;14.924;2023-04-06T00:37:04;99676.53;;;-0.46;70.61
63500;BME280;49654;51.142;14.924;2023-04-06T00:39:31;99678.44;;;-0.49;70.61
63500;BME280;49654;51.142;14.924;2023-04-06T00:41:58;99652.38;;;-0.69;70.51
63500;BME280;49654;51.142;14.924;2023-04-06T00:44:26;99639.34;;;-0.93;70.74
63500;BME280;49654;51.142;14.924;2023-04-06T00:46:54;99655.19;;;-0.73;71.98
63500;BME280;49654;51.142;14.924;2023-04-06T00:49:21;99659.03;;;-0.66;71.26
63500;BME280;49654;51.142;14.924;2023-04-06T00:51:49;99654.38;;;-0.74;70.90
63500;BME280;49654;51.142;14.924;2023-04-06T00:54:16;99667.59;;;-0.53;70.41
63500;BME280;49654;51.142;14.924;2023-04-06T00:56:43;99671.97;;;-0.55;70.48
63500;BME280;49654;51.142;14.924;2023-04-06T00:59:10;99567.78;;;-1.18;70.67
63500;BME280;49654;51.142;14.924;2023-04-06T01:01:37;99668.97;;;-0.62;71.44
63500;BME280;49654;51.142;14.924;2023-04-06T01:04:05;99617.41;;;-0.95;71.29
63500;BME280;49654;51.142;14.924;2023-04-06T01:06:32;99660.69;;;-0.80;71.51
63500;BME280;49654;51.142;14.924;2023-04-06T01:08:59;99667.06;;;-0.72;71.40
63500;BME280;49654;51.142;14.924;2023-04-06T01:11:26;99669.94;;;-0.64;71.45
63500;BME280;49654;51.142;14.924;2023-04-06T01:13:53;99636.25;;;-0.84;70.93
63500;BME280;49654;51.142;14.924;2023-04-06T01:16:20;99594.91;;;-1.17;70.70
63500;BME280;49654;51.142;14.924;2023-04-06T01:18:47;99670.69;;;-0.77;70.95
63500;BME280;49654;51.142;14.924;2023-04-06T01:21:16;99653.03;;;-0.94;71.13
63500;BME280;49654;51.142;14.924;2023-04-06T01:23:45;99637.13;;;-1.28;71.74
63500;BME280;49654;51.142;14.924;2023-04-06T01:26:12;99650.81;;;-1.14;72.13
63500;BME280;49654;51.142;14.924;2023-04-06T01:28:39;99642.59;;;-1.19;72.43
63500;BME280;49654;51.142;14.924;2023-04-06T01:31:07;99663.13;;;-0.92;72.31
63500;BME280;49654;51.142;14.924;2023-04-06T01:33:34;99624.50;;;-1.15;71.15
63500;BME280;49654;51.142;14.924;2023-04-06T01:36:02;99622.41;;;-1.08;70.76
63500;BME280;49654;51.142;14.924;2023-04-06T01:38:29;99671.22;;;-0.86;70.64
63500;BME280;49654;51.142;14.924;2023-04-06T01:40:57;99646.63;;;-1.01;70.85
63500;BME280;49654;51.142;14.924;2023-04-06T01:43:24;99626.28;;;-1.17;71.21
63500;BME280;49654;51.142;14.924;2023-04-06T01:45:51;99665.94;;;-0.97;71.12
63500;BME280;49654;51.142;14.924;2023-04-06T01:48:18;99649.53;;;-1.07;70.76
63500;BME280;49654;51.142;14.924;2023-04-06T01:50:45;99641.59;;;-1.17;70.84
63500;BME280;49654;51.142;14.924;2023-04-06T01:53:12;99656.56;;;-0.96;71.30
63500;BME280;49654;51.142;14.924;2023-04-06T01:55:40;99638.59;;;-1.09;71.02
63500;BME280;49654;51.142;14.924;2023-04-06T01:58:08;99636.63;;;-1.48;72.21
63500;BME280;49654;51.142;14.924;2023-04-06T02:00:35;99622.09;;;-1.32;71.93
63500;BME280;49654;51.142;14.924;2023-04-06T02:03:02;99639.00;;;-1.45;71.37
63500;BME280;49654;51.142;14.924;2023-04-06T02:05:30;99663.56;;;-1.44;72.44
63500;BME280;49654;51.142;14.924;2023-04-06T02:07:58;99657.81;;;-1.48;72.81
63500;BME280;49654;51.142;14.924;2023-04-06T02:10:25;99660.22;;;-1.31;72.85
63500;BME280;49654;51.142;14.924;2023-04-06T02:12:52;99662.47;;;-1.10;71.54
63500;BME280;49654;51.142;14.924;2023-04-06T02:15:20;99650.38;;;-1.07;71.30
63500;BME280;49654;51.142;14.924;2023-04-06T02:17:47;99625.38;;;-1.16;70.94
63500;BME280;49654;51.142;14.924;2023-04-06T02:20:14;99633.34;;;-1.06;70.86
63500;BME280;49654;51.142;14.924;2023-04-06T02:22:41;99641.25;;;-0.96;70.93
63500;BME280;49654;51.142;14.924;2023-04-06T02:25:08;99663.56;;;-0.86;71.38
63500;BME280;49654;51.142;14.924;2023-04-06T02:27:35;99655.91;;;-0.86;71.59
63500;BME280;49654;51.142;14.924;2023-04-06T02:30:03;99645.38;;;-0.80;71.76
63500;BME280;49654;51.142;14.924;2023-04-06T02:32:31;99577.97;;;-1.04;71.41
63500;BME280;49654;51.142;14.924;2023-04-06T02:34:58;99650.75;;;-0.41;70.58
63500;BME280;49654;51.142;14.924;2023-04-06T02:37:25;99620.59;;;-0.49;70.57
63500;BME280;49654;51.142;14.924;2023-04-06T02:39:52;99627.25;;;-0.46;70.60
63500;BME280;49654;51.142;14.924;2023-04-06T02:42:19;99534.38;;;-0.99;71.32
63500;BME280;49654;51.142;14.924;2023-04-06T02:44:46;99648.41;;;-0.17;71.61
63500;BME280;49654;51.142;14.924;2023-04-06T02:47:13;99567.75;;;-0.61;71.44
63500;BME280;49654;51.142;14.924;2023-04-06T02:49:42;99596.88;;;-0.37;71.71
63500;BME280;49654;51.142;14.924;2023-04-06T02:52:08;99643.19;;;-0.02;71.68
63500;BME280;49654;51.142;14.924;2023-04-06T02:54:35;99636.81;;;-0.09;71.63
63500;BME280;49654;51.142;14.924;2023-04-06T02:57:02;99642.38;;;-0.02;72.18
63500;BME280;49654;51.142;14.924;2023-04-06T02:59:29;99619.56;;;-0.05;71.33
63500;BME280;49654;51.142;14.924;2023-04-06T03:01:56;99657.09;;;0.07;71.15
63500;BME280;49654;51.142;14.924;2023-04-06T03:04:23;99640.44;;;0.02;71.74
63500;BME280;49654;51.142;14.924;2023-04-06T03:06:53;99630.53;;;-0.17;71.51
63500;BME280;49654;51.142;14.924;2023-04-06T03:09:20;99653.78;;;-0.08;72.08
63500;BME280;49654;51.142;14.924;2023-04-06T03:11:47;99626.19;;;-0.15;72.25
63500;BME280;49654;51.142;14.924;2023-04-06T03:14:14;99562.00;;;-0.51;71.97
63500;BME280;49654;51.142;14.924;2023-04-06T03:16:43;99665.56;;;0.22;71.99
63500;BME280;49654;51.142;14.924;2023-04-06T03:19:10;99665.13;;;0.15;71.03
63500;BME280;49654;51.142;14.924;2023-04-06T03:21:37;99643.94;;;-0.14;71.81
63500;BME280;49654;51.142;14.924;2023-04-06T03:24:06;99626.34;;;-0.18;72.40
63500;BME280;49654;51.142;14.924;2023-04-06T03:26:33;99655.63;;;0.17;71.79
63500;BME280;49654;51.142;14.924;2023-04-06T03:29:00;99628.09;;;0.08;71.16
63500;BME280;49654;51.142;14.924;2023-04-06T03:31:27;99621.53;;;0.04;71.06
63500;BME280;49654;51.142;14.924;2023-04-06T03:33:54;99614.69;;;-0.08;70.99
63500;BME280;49654;51.142;14.924;2023-04-06T03:36:21;99615.50;;;-0.22;71.35
63500;BME280;49654;51.142;14.924;2023-04-06T03:38:48;99668.41;;;0.17;71.56
63500;BME280;49654;51.142;14.924;2023-04-06T03:41:16;99668.81;;;0.24;70.66
63500;BME280;49654;51.142;14.924;2023-04-06T03:43:43;99668.59;;;0.14;70.61
63500;BME280;49654;51.142;14.924;2023-04-06T03:46:10;99672.44;;;0.07;70.87
63500;BME280;49654;51.142;14.924;2023-04-06T03:48:37;99673.00;;;-0.02;71.55
63500;BME280;49654;51.142;14.924;2023-04-06T03:51:04;99590.63;;;-0.60;72.20
63500;BME280;49654;51.142;14.924;2023-04-06T03:53:31;99678.28;;;0.09;71.82
63500;BME280;49654;51.142;14.924;2023-04-06T03:55:58;99656.75;;;-0.01;71.02
63500;BME280;49654;51.142;14.924;2023-04-06T03:58:26;99630.56;;;-0.32;71.28
63500;BME280;49654;51.142;14.924;2023-04-06T04:00:53;99648.91;;;-0.25;71.98
63500;BME280;49654;51.142;14.924;2023-04-06T04:03:20;99643.44;;;-0.33;72.04
63500;BME280;49654;51.142;14.924;2023-04-06T04:05:49;99690.81;;;-0.15;72.10
63500;BME280;49654;51.142;14.924;2023-04-06T04:08:16;99655.88;;;-0.56;72.23
63500;BME280;49654;51.142;14.924;2023-04-06T04:10:43;99675.97;;;-0.37;72.54
63500;BME280;49654;51.142;14.924;2023-04-06T04:13:10;99636.72;;;-0.91;72.26
63500;BME280;49654;51.142;14.924;2023-04-06T04:15:38;99682.00;;;-0.66;72.90
63500;BME280;49654;51.142;14.924;2023-04-06T04:18:06;99690.56;;;-0.53;73.07
63500;BME280;49654;51.142;14.924;2023-04-06T04:20:33;99687.19;;;-0.54;73.15
63500;BME280;49654;51.142;14.924;2023-04-06T04:23:00;99651.66;;;-0.71;73.06
63500;BME280;49654;51.142;14.924;2023-04-06T04:25:27;99669.41;;;-0.69;72.55
63500;BME280;49654;51.142;14.924;2023-04-06T04:27:54;99687.47;;;-0.58;72.80
63500;BME280;49654;51.142;14.924;2023-04-06T04:30:21;99677.59;;;-0.64;72.67
63500;BME280;49654;51.142;14.924;2023-04-06T04:32:49;99688.28;;;-0.43;72.57
63500;BME280;49654;51.142;14.924;2023-04-06T04:35:16;99673.91;;;-0.59;72.38
63500;BME280;49654;51.142;14.924;2023-04-06T04:37:43;99643.91;;;-0.84;72.55
63500;BME280;49654;51.142;14.924;2023-04-06T04:40:11;99653.94;;;-0.81;72.69
63500;BME280;49654;51.142;14.924;2023-04-06T04:42:38;99673.44;;;-0.65;71.95
63500;BME280;49654;51.142;14.924;2023-04-06T04:45:05;99681.81;;;-0.63;71.60
63500;BME280;49654;51.142;14.924;2023-04-06T04:47:32;99632.44;;;-0.91;71.06
63500;BME280;49654;51.142;14.924;2023-04-06T04:50:01;99703.13;;;-0.50;71.30
63500;BME280;49654;51.142;14.924;2023-04-06T04:52:28;99662.13;;;-0.90;71.70
63500;BME280;49654;51.142;14.924;2023-04-06T04:54:55;99700.88;;;-0.55;72.44
63500;BME280;49654;51.142;14.924;2023-04-06T04:57:22;99622.06;;;-1.02;72.44
63500;BME280;49654;51.142;14.924;2023-04-06T04:59:49;99707.88;;;-0.44;72.48
63500;BME280;49654;51.142;14.924;2023-04-06T05:02:16;99639.34;;;-0.79;72.17
63500;BME280;49654;51.142;14.924;2023-04-06T05:04:43;99697.13;;;-0.49;72.22
63500;BME280;49654;51.142;14.924;2023-04-06T05:07:11;99648.09;;;-0.83;72.96
63500;BME280;49654;51.142;14.924;2023-04-06T05:09:38;99708.06;;;-0.33;72.38
63500;BME280;49654;51.142;14.924;2023-04-06T05:12:06;99717.34;;;-0.32;72.63
63500;BME280;49654;51.142;14.924;2023-04-06T05:14:33;99706.44;;;-0.34;72.80
63500;BME280;49654;51.142;14.924;2023-04-06T05:17:00;99709.34;;;-0.26;72.42
63500;BME280;49654;51.142;14.924;2023-04-06T05:19:27;99689.66;;;-0.38;72.69
63500;BME280;49654;51.142;14.924;2023-04-06T05:21:54;99683.59;;;-0.22;72.79
63500;BME280;49654;51.142;14.924;2023-04-06T05:24:22;99713.09;;;0.10;71.63
63500;BME280;49654;51.142;14.924;2023-04-06T05:26:49;99682.16;;;-0.12;71.27
63500;BME280;49654;51.142;14.924;2023-04-06T05:29:16;99710.19;;;0.02;71.60
63500;BME280;49654;51.142;14.924;2023-04-06T05:31:43;99708.81;;;0.11;71.71
63500;BME280;49654;51.142;14.924;2023-04-06T05:34:10;99685.06;;;-0.04;72.14
63500;BME280;49654;51.142;14.924;2023-04-06T05:36:38;99607.28;;;-0.54;72.45
63500;BME280;49654;51.142;14.924;2023-04-06T05:39:05;99677.00;;;0.02;72.71
63500;BME280;49654;51.142;14.924;2023-04-06T05:41:34;99711.78;;;0.32;73.08
63500;BME280;49654;51.142;14.924;2023-04-06T05:44:01;99642.47;;;-0.04;73.19
63500;BME280;49654;51.142;14.924;2023-04-06T05:46:28;99685.50;;;0.30;73.58
63500;BME280;49654;51.142;14.924;2023-04-06T05:48:55;99688.84;;;0.44;73.16
63500;BME280;49654;51.142;14.924;2023-04-06T05:51:22;99711.59;;;0.62;73.09
63500;BME280;49654;51.142;14.924;2023-04-06T05:53:49;99711.47;;;0.63;73.39
63500;BME280;49654;51.142;14.924;2023-04-06T05:56:16;99688.34;;;0.52;73.24
63500;BME280;49654;51.142;14.924;2023-04-06T05:58:44;99690.34;;;0.74;73.48
63500;BME280;49654;51.142;14.924;2023-04-06T06:01:11;99656.91;;;0.64;73.45
63500;BME280;49654;51.142;14.924;2023-04-06T06:03:39;99678.78;;;0.81;73.44
63500;BME280;49654;51.142;14.924;2023-04-06T06:06:05;99715.25;;;1.10;73.52
63500;BME280;49654;51.142;14.924;2023-04-06T06:08:32;99664.28;;;0.82;73.60
63500;BME280;49654;51.142;14.924;2023-04-06T06:10:59;99707.59;;;1.23;74.04
63500;BME280;49654;51.142;14.924;2023-04-06T06:13:26;99721.50;;;1.32;74.03
63500;BME280;49654;51.142;14.924;2023-04-06T06:15:55;99717.94;;;1.47;74.33
63500;BME280;49654;51.142;14.924;2023-04-06T06:18:22;99674.75;;;1.30;74.72
63500;BME280;49654;51.142;14.924;2023-04-06T06:20:49;99639.13;;;1.27;74.74
63500;BME280;49654;51.142;14.924;2023-04-06T06:23:16;99654.25;;;1.55;74.82
63500;BME280;49654;51.142;14.924;2023-04-06T06:25:43;99669.97;;;1.74;74.76
63500;BME280;49654;51.142;14.924;2023-04-06T06:28:10;99720.38;;;2.23;74.80
63500;BME280;49654;51.142;14.924;2023-04-06T06:30:36;99596.72;;;1.48;74.58
63500;BME280;49654;51.142;14.924;2023-04-06T06:33:05;99702.66;;;2.20;74.38
63500;BME280;49654;51.142;14.924;2023-04-06T06:35:32;99666.22;;;2.04;74.75
63500;BME280;49654;51.142;14.924;2023-04-06T06:37:59;99711.53;;;2.51;74.93
63500;BME280;49654;51.142;14.924;2023-04-06T06:40:26;99684.81;;;2.43;74.31
63500;BME280;49654;51.142;14.924;2023-04-06T06:42:53;99687.25;;;2.68;74.42
63500;BME280;49654;51.142;14.924;2023-04-06T06:45:20;99685.69;;;2.90;73.71
63500;BME280;49654;51.142;14.924;2023-04-06T06:47:47;99707.66;;;3.16;73.06
63500;BME280;49654;51.142;14.924;2023-04-06T06:50:16;99718.69;;;3.41;72.35
63500;BME280;49654;51.142;14.924;2023-04-06T06:52:43;99650.38;;;2.93;72.66
63500;BME280;49654;51.142;14.924;2023-04-06T06:55:10;99721.25;;;3.41;72.17
63500;BME280;49654;51.142;14.924;2023-04-06T06:57:37;99672.91;;;3.23;72.11
63500;BME280;49654;51.142;14.924;2023-04-06T07:00:06;99684.38;;;3.31;72.52
63500;BME280;49654;51.142;14.924;2023-04-06T07:02:34;99726.75;;;3.70;72.17
63500;BME280;49654;51.142;14.924;2023-04-06T07:05:02;99724.03;;;3.94;70.83
63500;BME280;49654;51.142;14.924;2023-04-06T07:07:31;99680.75;;;3.78;70.87
63500;BME280;49654;51.142;14.924;2023-04-06T07:09:58;99613.41;;;3.41;70.66
63500;BME280;49654;51.142;14.924;2023-04-06T07:12:26;99673.91;;;4.11;69.03
63500;BME280;49654;51.142;14.924;2023-04-06T07:14:52;99715.97;;;4.53;68.02
63500;BME280;49654;51.142;14.924;2023-04-06T07:17:19;99704.28;;;4.60;67.89
63500;BME280;49654;51.142;14.924;2023-04-06T07:19:46;99703.69;;;4.57;68.12
63500;BME280;49654;51.142;14.924;2023-04-06T07:22:13;99717.28;;;4.80;68.13
63500;BME280;49654;51.142;14.924;2023-04-06T07:24:42;99656.81;;;4.53;67.60
63500;BME280;49654;51.142;14.924;2023-04-06T07:27:09;99724.00;;;5.13;66.63
63500;BME280;49654;51.142;14.924;2023-04-06T07:29:35;99700.53;;;5.27;65.57
63500;BME280;49654;51.142;14.924;2023-04-06T07:32:03;99721.81;;;5.50;65.05
63500;BME280;49654;51.142;14.924;2023-04-06T07:34:30;99715.91;;;5.69;61.27
63500;BME280;49654;51.142;14.924;2023-04-06T07:36:57;99675.22;;;5.72;59.76
63500;BME280;49654;51.142;14.924;2023-04-06T07:39:24;99688.84;;;5.84;58.55
63500;BME280;49654;51.142;14.924;2023-04-06T07:41:53;99707.09;;;6.02;58.35
63500;BME280;49654;51.142;14.924;2023-04-06T07:44:20;99658.06;;;5.83;55.54
63500;BME280;49654;51.142;14.924;2023-04-06T07:46:47;99714.19;;;6.10;53.85
63500;BME280;49654;51.142;14.924;2023-04-06T07:49:14;99706.59;;;6.18;54.39
63500;BME280;49654;51.142;14.924;2023-04-06T07:51:41;99718.19;;;6.43;53.28
63500;BME280;49654;51.142;14.924;2023-04-06T07:54:08;99695.06;;;6.41;53.06
63500;BME280;49654;51.142;14.924;2023-04-06T07:56:35;99710.03;;;6.57;50.13
63500;BME280;49654;51.142;14.924;2023-04-06T07:59:03;99675.53;;;6.58;50.19
63500;BME280;49654;51.142;14.924;2023-04-06T08:01:30;99721.97;;;6.97;46.15
63500;BME280;49654;51.142;14.924;2023-04-06T08:03:57;99694.13;;;6.91;46.08
63500;BME280;49654;51.142;14.924;2023-04-06T08:06:24;99719.66;;;6.84;43.63
63500;BME280;49654;51.142;14.924;2023-04-06T08:08:51;99721.00;;;6.98;44.19
63500;BME280;49654;51.142;14.924;2023-04-06T08:11:18;99717.19;;;7.21;45.40
63500;BME280;49654;51.142;14.924;2023-04-06T08:13:45;99704.66;;;7.26;46.80
63500;BME280;49654;51.142;14.924;2023-04-06T08:16:14;99714.75;;;7.57;43.33
63500;BME280;49654;51.142;14.924;2023-04-06T08:18:41;99724.94;;;7.68;43.08
63500;BME280;49654;51.142;14.924;2023-04-06T08:21:10;99691.75;;;7.64;42.57
63500;BME280;49654;51.142;14.924;2023-04-06T08:23:37;99721.66;;;7.76;41.78
63500;BME280;49654;51.142;14.924;2023-04-06T08:26:04;99698.81;;;7.71;40.47
63500;BME280;49654;51.142;14.924;2023-04-06T08:28:31;99709.00;;;7.73;40.69
63500;BME280;49654;51.142;14.924;2023-04-06T08:31:03;99716.50;;;7.66;40.30
63500;BME280;49654;51.142;14.924;2023-04-06T08:33:33;99718.25;;;8.03;40.65
63500;BME280;49654;51.142;14.924;2023-04-06T08:36:09;99702.44;;;8.51;38.60
63500;BME280;49654;51.142;14.924;2023-04-06T08:38:36;99623.78;;;7.81;35.87
63500;BME280;49654;51.142;14.924;2023-04-06T08:41:09;99667.56;;;8.10;36.30
63500;BME280;49654;51.142;14.924;2023-04-06T08:43:42;99711.09;;;8.15;36.49
63500;BME280;49654;51.142;14.924;2023-04-06T08:46:10;99715.34;;;8.34;37.65
63500;BME280;49654;51.142;14.924;2023-04-06T08:48:40;99684.72;;;8.11;36.73
63500;BME280;49654;51.142;14.924;2023-04-06T08:51:08;99711.75;;;8.17;36.77
63500;BME280;49654;51.142;14.924;2023-04-06T08:53:35;99660.94;;;7.80;39.32
63500;BME280;49654;51.142;14.924;2023-04-06T08:56:03;99710.63;;;8.47;39.60
63500;BME280;49654;51.142;14.924;2023-04-06T08:58:32;99705.09;;;8.60;38.36
63500;BME280;49654;51.142;14.924;2023-04-06T09:01:00;99701.84;;;8.12;40.66
63500;BME280;49654;51.142;14.924;2023-04-06T09:03:29;99700.19;;;7.66;37.44
63500;BME280;49654;51.142;14.924;2023-04-06T09:05:59;99718.00;;;7.69;38.82
63500;BME280;49654;51.142;14.924;2023-04-06T09:08:26;99671.84;;;7.74;43.53
63500;BME280;49654;51.142;14.924;2023-04-06T09:10:53;99653.72;;;7.84;41.97
63500;BME280;49654;51.142;14.924;2023-04-06T09:13:20;99690.63;;;8.21;41.94
63500;BME280;49654;51.142;14.924;2023-04-06T09:15:58;99645.09;;;8.28;38.88
63500;BME280;49654;51.142;14.924;2023-04-06T09:18:29;99689.22;;;9.24;38.15
63500;BME280;49654;51.142;14.924;2023-04-06T09:20:59;99690.34;;;10.49;37.66
63500;BME280;49654;51.142;14.924;2023-04-06T09:23:26;99685.56;;;11.82;35.80
63500;BME280;49654;51.142;14.924;2023-04-06T09:26:04;99655.97;;;12.83;33.43
63500;BME280;49654;51.142;14.924;2023-04-06T09:28:41;99673.31;;;13.72;32.77
63500;BME280;49654;51.142;14.924;2023-04-06T09:31:08;99610.66;;;13.72;29.79
63500;BME280;49654;51.142;14.924;2023-04-06T09:33:37;99674.59;;;13.98;30.55
63500;BME280;49654;51.142;14.924;2023-04-06T09:36:06;99652.00;;;14.26;29.89
63500;BME280;49654;51.142;14.924;2023-04-06T09:38:36;99672.59;;;14.36;30.47
63500;BME280;49654;51.142;14.924;2023-04-06T09:41:03;99654.03;;;13.73;30.68
63500;BME280;49654;51.142;14.924;2023-04-06T09:43:30;99578.66;;;12.60;31.29
63500;BME280;49654;51.142;14.924;2023-04-06T09:46:00;99618.63;;;11.75;32.48
63500;BME280;49654;51.142;14.924;2023-04-06T09:48:30;99618.06;;;11.18;34.39
63500;BME280;49654;51.142;14.924;2023-04-06T09:50:59;99656.66;;;11.37;35.90
63500;BME280;49654;51.142;14.924;2023-04-06T09:53:31;99642.13;;;10.95;34.66
63500;BME280;49654;51.142;14.924;2023-04-06T09:56:02;99622.50;;;10.27;34.80
63500;BME280;49654;51.142;14.924;2023-04-06T09:58:34;99682.00;;;10.13;38.17
63500;BME280;49654;51.142;14.924;2023-04-06T10:01:07;99606.13;;;9.60;38.03
63500;BME280;49654;51.142;14.924;2023-04-06T10:03:45;99604.94;;;8.86;37.42
63500;BME280;49654;51.142;14.924;2023-04-06T10:06:20;99606.13;;;8.66;37.99
63500;BME280;49654;51.142;14.924;2023-04-06T10:08:50;99649.91;;;9.03;39.21
63500;BME280;49654;51.142;14.924;2023-04-06T10:11:20;99666.94;;;9.06;39.90
63500;BME280;49654;51.142;14.924;2023-04-06T10:13:48;99597.75;;;8.72;41.42
63500;BME280;49654;51.142;14.924;2023-04-06T10:16:16;99660.25;;;9.29;38.87
63500;BME280;49654;51.142;14.924;2023-04-06T10:18:47;99645.13;;;9.16;40.66
63500;BME280;49654;51.142;14.924;2023-04-06T10:21:19;99622.03;;;8.97;40.16
63500;BME280;49654;51.142;14.924;2023-04-06T10:23:48;99641.59;;;9.17;37.23
63500;BME280;49654;51.142;14.924;2023-04-06T10:26:20;99549.41;;;8.81;37.46
63500;BME280;49654;51.142;14.924;2023-04-06T10:28:48;99658.22;;;9.83;36.33
63500;BME280;49654;51.142;14.924;2023-04-06T10:31:24;99595.72;;;9.52;38.71
63500;BME280;49654;51.142;14.924;2023-04-06T10:33:54;99571.38;;;9.37;36.05
63500;BME280;49654;51.142;14.924;2023-04-06T10:36:22;99582.28;;;9.57;35.65
63500;BME280;49654;51.142;14.924;2023-04-06T10:38:55;99634.91;;;9.91;35.46
63500;BME280;49654;51.142;14.924;2023-04-06T10:41:24;99645.50;;;10.14;36.17
63500;BME280;49654;51.142;14.924;2023-04-06T10:43:58;99650.13;;;10.37;38.13
63500;BME280;49654;51.142;14.924;2023-04-06T10:46:27;99652.34;;;10.32;36.14
63500;BME280;49654;51.142;14.924;2023-04-06T10:48:55;99640.47;;;10.13;36.51
63500;BME280;49654;51.142;14.924;2023-04-06T10:51:24;99637.03;;;9.96;35.60
63500;BME280;49654;51.142;14.924;2023-04-06T10:53:53;99622.59;;;10.01;35.34
63500;BME280;49654;51.142;14.924;2023-04-06T10:56:23;99647.06;;;9.91;34.45
63500;BME280;49654;51.142;14.924;2023-04-06T10:58:54;99616.81;;;9.57;36.02
63500;BME280;49654;51.142;14.924;2023-04-06T11:01:23;99644.41;;;9.74;35.71
63500;BME280;49654;51.142;14.924;2023-04-06T11:03:53;99603.56;;;9.68;34.06
63500;BME280;49654;51.142;14.924;2023-04-06T11:06:21;99610.50;;;10.35;33.50
63500;BME280;49654;51.142;14.924;2023-04-06T11:08:49;99605.56;;;11.52;34.47
63500;BME280;49654;51.142;14.924;2023-04-06T11:11:18;99546.50;;;11.61;29.12
63500;BME280;49654;51.142;14.924;2023-04-06T11:13:49;99598.09;;;11.81;30.08
63500;BME280;49654;51.142;14.924;2023-04-06T11:16:17;99628.22;;;11.75;28.20
63500;BME280;49654;51.142;14.924;2023-04-06T11:18:55;99484.59;;;10.47;27.42
63500;BME280;49654;51.142;14.924;2023-04-06T11:21:33;99583.84;;;10.90;29.16
63500;BME280;49654;51.142;14.924;2023-04-06T11:24:08;99618.84;;;11.26;29.67
63500;BME280;49654;51.142;14.924;2023-04-06T11:26:42;99479.25;;;10.24;27.90
63500;BME280;49654;51.142;14.924;2023-04-06T11:29:12;99538.28;;;10.63;27.75
63500;BME280;49654;51.142;14.924;2023-04-06T11:31:40;99592.97;;;11.33;28.40
63500;BME280;49654;51.142;14.924;2023-04-06T11:34:12;99539.03;;;11.27;29.37
63500;BME280;49654;51.142;14.924;2023-04-06T11:36:43;99606.53;;;12.37;31.27
63500;BME280;49654;51.142;14.924;2023-04-06T11:39:10;99582.59;;;14.17;29.12
63500;BME280;49654;51.142;14.924;2023-04-06T11:41:38;99597.28;;;15.31;27.42
63500;BME280;49654;51.142;14.924;2023-04-06T11:44:05;99575.47;;;17.69;24.41
63500;BME280;49654;51.142;14.924;2023-04-06T11:46:33;99593.09;;;18.00;22.73
63500;BME280;49654;51.142;14.924;2023-04-06T11:49:01;99585.47;;;19.29;20.57
63500;BME280;49654;51.142;14.924;2023-04-06T11:51:28;99519.38;;;18.63;21.08
63500;BME280;49654;51.142;14.924;2023-04-06T11:53:55;99518.03;;;17.41;23.39
63500;BME280;49654;51.142;14.924;2023-04-06T11:56:27;99562.75;;;15.62;24.82
63500;BME280;49654;51.142;14.924;2023-04-06T11:58:55;99548.94;;;15.26;26.45
63500;BME280;49654;51.142;14.924;2023-04-06T12:01:23;99594.91;;;14.73;28.50
63500;BME280;49654;51.142;14.924;2023-04-06T12:03:52;99594.41;;;14.35;28.05
63500;BME280;49654;51.142;14.924;2023-04-06T12:06:19;99550.41;;;14.10;27.86
63500;BME280;49654;51.142;14.924;2023-04-06T12:08:46;99588.31;;;13.85;29.47
63500;BME280;49654;51.142;14.924;2023-04-06T12:11:13;99590.41;;;14.88;30.36
63500;BME280;49654;51.142;14.924;2023-04-06T12:13:40;99581.50;;;15.17;29.08
63500;BME280;49654;51.142;14.924;2023-04-06T12:16:07;99536.56;;;14.66;27.88
63500;BME280;49654;51.142;14.924;2023-04-06T12:18:34;99555.81;;;14.93;27.08
63500;BME280;49654;51.142;14.924;2023-04-06T12:21:03;99514.09;;;16.40;25.90
63500;BME280;49654;51.142;14.924;2023-04-06T12:23:31;99517.34;;;18.84;21.63
63500;BME280;49654;51.142;14.924;2023-04-06T12:25:58;99504.19;;;20.74;22.25
63500;BME280;49654;51.142;14.924;2023-04-06T12:28:25;99567.91;;;21.18;19.92
63500;BME280;49654;51.142;14.924;2023-04-06T12:30:52;99566.22;;;19.46;21.90
63500;BME280;49654;51.142;14.924;2023-04-06T12:33:19;99556.38;;;18.18;23.64
63500;BME280;49654;51.142;14.924;2023-04-06T12:35:46;99561.06;;;19.51;21.89
63500;BME280;49654;51.142;14.924;2023-04-06T12:38:15;99515.22;;;22.14;17.16
63500;BME280;49654;51.142;14.924;2023-04-06T12:40:42;99548.13;;;23.94;16.74
63500;BME280;49654;51.142;14.924;2023-04-06T12:43:09;99479.34;;;27.80;15.51
63500;BME280;49654;51.142;14.924;2023-04-06T12:45:36;99537.84;;;28.06;12.07
63500;BME280;49654;51.142;14.924;2023-04-06T12:48:03;99531.34;;;28.12;13.69
63500;BME280;49654;51.142;14.924;2023-04-06T12:50:30;99448.16;;;29.14;12.25
63500;BME280;49654;51.142;14.924;2023-04-06T12:52:57;99460.69;;;30.58;11.59
63500;BME280;49654;51.142;14.924;2023-04-06T12:55:29;99475.47;;;29.68;11.24
63500;BME280;49654;51.142;14.924;2023-04-06T12:57:57;99523.72;;;30.09;10.13